메인 페이지
METAR-TAF:

METAR-TAF

공항 :

상해 / 푸동, 중국

상하이 푸둥 국제공항

위도: 31-07N, 경도: 121-46E, 고도: 4m

현재 날씨관측

예보는 31분 전, 00:30시(UTC)에 발표되었습니다.
동남동8kt
온도 8°C
습도 87%
기압 1021 hPa
시정 10km 이상
1500m 미만 상공 구름 및 적란운 없음

METAR: ZSPD 180030Z 12004MPS CAVOK 08/06 Q1021 NOSIG

시각: 09:01 (01:01 UTC)

예보

예보는 3 시간 32분 전, 21:29시(UTC)에 발표되었습니다.
예보 대상 시간: 18일 00시부터 18일 24시까지 (UTC)
동남동14kt
시정: 6000m
고도 1100ft 상공 구름 많음
전환 중
18일 11시부터 18일 12시까지 (UTC)
동북동8kt

TAF: ZSPD 172129Z 1800/1824 11007MPS 6000 BKN011 TX11/1806Z TN06/1821Z BECMG 1811/1812 06004MPS

4,000개 이상의 공항 관측 자료 및 예보 (METAR 및 TAF 보고).

지도상에서 검색 가능한 기상관측소가 노란 점과 빨간 점으로 표시되어 있습니다.

기상관측소 명을 보려면 표시 위로 마우스를 이동하세요.

날씨 관측과 예보를 보려면 클릭하세요.

지도 변경 : 확대하려면 엑스 표시가 있는 녹색 버튼, 축소하려면 빼기 표시가 있는 녹색 버튼, 다음 페이지의 지도를 보려면 녹색 화살표를 클릭하세요.


METAR-TAF: